sensor_id;sensor_type;location;lat;lon;timestamp;pressure;altitude;pressure_sealevel;temperature;humidity
63946;BME280;50122;56.330;43.838;2023-04-08T00:00:30;102244.69;;;0.52;52.46
63946;BME280;50122;56.330;43.838;2023-04-08T00:02:57;102238.53;;;0.50;52.54
63946;BME280;50122;56.330;43.838;2023-04-08T00:05:23;102241.22;;;0.53;52.65
63946;BME280;50122;56.330;43.838;2023-04-08T00:07:51;102249.94;;;0.54;52.61
63946;BME280;50122;56.330;43.838;2023-04-08T00:10:18;102248.91;;;0.48;52.88
63946;BME280;50122;56.330;43.838;2023-04-08T00:12:46;102239.94;;;0.39;52.82
63946;BME280;50122;56.330;43.838;2023-04-08T00:15:13;102235.44;;;0.33;53.38
63946;BME280;50122;56.330;43.838;2023-04-08T00:17:40;102246.59;;;0.29;53.32
63946;BME280;50122;56.330;43.838;2023-04-08T00:20:07;102243.84;;;0.24;53.14
63946;BME280;50122;56.330;43.838;2023-04-08T00:22:34;102242.94;;;0.22;53.87
63946;BME280;50122;56.330;43.838;2023-04-08T00:25:01;102243.97;;;0.29;53.91
63946;BME280;50122;56.330;43.838;2023-04-08T00:27:32;102245.09;;;0.37;53.06
63946;BME280;50122;56.330;43.838;2023-04-08T00:30:00;102246.06;;;0.39;52.94
63946;BME280;50122;56.330;43.838;2023-04-08T00:32:27;102244.16;;;0.33;53.00
63946;BME280;50122;56.330;43.838;2023-04-08T00:35:00;102249.97;;;0.25;53.87
63946;BME280;50122;56.330;43.838;2023-04-08T00:37:28;102248.13;;;0.22;53.80
63946;BME280;50122;56.330;43.838;2023-04-08T00:39:58;102245.41;;;0.17;53.47
63946;BME280;50122;56.330;43.838;2023-04-08T00:42:25;102253.94;;;0.13;53.87
63946;BME280;50122;56.330;43.838;2023-04-08T00:44:52;102242.63;;;0.13;54.22
63946;BME280;50122;56.330;43.838;2023-04-08T00:47:21;102241.72;;;0.11;54.27
63946;BME280;50122;56.330;43.838;2023-04-08T00:49:48;102241.53;;;0.05;54.39
63946;BME280;50122;56.330;43.838;2023-04-08T00:52:19;102244.00;;;0.00;54.26
63946;BME280;50122;56.330;43.838;2023-04-08T00:54:46;102244.69;;;-0.06;54.32
63946;BME280;50122;56.330;43.838;2023-04-08T00:57:13;102240.19;;;-0.11;54.86
63946;BME280;50122;56.330;43.838;2023-04-08T00:59:53;102237.28;;;-0.21;54.92
63946;BME280;50122;56.330;43.838;2023-04-08T01:02:32;102239.78;;;-0.24;55.30
63946;BME280;50122;56.330;43.838;2023-04-08T01:08:04;102246.84;;;-0.20;54.97
63946;BME280;50122;56.330;43.838;2023-04-08T01:10:34;102239.91;;;-0.19;55.67
63946;BME280;50122;56.330;43.838;2023-04-08T01:13:08;102250.28;;;-0.21;55.16
63946;BME280;50122;56.330;43.838;2023-04-08T01:15:37;102246.03;;;-0.19;54.88
63946;BME280;50122;56.330;43.838;2023-04-08T01:18:09;102256.47;;;-0.17;54.91
63946;BME280;50122;56.330;43.838;2023-04-08T01:20:39;102248.72;;;-0.15;54.45
63946;BME280;50122;56.330;43.838;2023-04-08T01:23:32;102253.91;;;-0.15;54.34
63946;BME280;50122;56.330;43.838;2023-04-08T01:26:02;102252.88;;;-0.21;54.80
63946;BME280;50122;56.330;43.838;2023-04-08T01:28:30;102247.56;;;-0.24;54.98
63946;BME280;50122;56.330;43.838;2023-04-08T01:30:59;102250.13;;;-0.25;54.90
63946;BME280;50122;56.330;43.838;2023-04-08T01:33:27;102246.38;;;-0.33;55.50
63946;BME280;50122;56.330;43.838;2023-04-08T01:35:55;102261.78;;;-0.40;55.27
63946;BME280;50122;56.330;43.838;2023-04-08T01:38:24;102257.41;;;-0.41;55.34
63946;BME280;50122;56.330;43.838;2023-04-08T01:40:53;102251.25;;;-0.44;55.80
63946;BME280;50122;56.330;43.838;2023-04-08T01:43:21;102254.31;;;-0.56;55.14
63946;BME280;50122;56.330;43.838;2023-04-08T01:45:49;102249.81;;;-0.62;55.92
63946;BME280;50122;56.330;43.838;2023-04-08T01:48:21;102251.34;;;-0.67;56.00
63946;BME280;50122;56.330;43.838;2023-04-08T01:50:50;102262.94;;;-0.57;55.48
63946;BME280;50122;56.330;43.838;2023-04-08T01:53:18;102252.50;;;-0.59;55.73
63946;BME280;50122;56.330;43.838;2023-04-08T01:55:51;102251.56;;;-0.61;56.01
63946;BME280;50122;56.330;43.838;2023-04-08T01:58:21;102256.75;;;-0.61;55.83
63946;BME280;50122;56.330;43.838;2023-04-08T02:00:50;102259.47;;;-0.58;56.45
63946;BME280;50122;56.330;43.838;2023-04-08T02:03:21;102263.63;;;-0.63;56.49
63946;BME280;50122;56.330;43.838;2023-04-08T02:05:49;102266.16;;;-0.64;56.24
63946;BME280;50122;56.330;43.838;2023-04-08T02:08:17;102260.72;;;-0.72;56.00
63946;BME280;50122;56.330;43.838;2023-04-08T02:10:43;102262.16;;;-0.80;55.87
63946;BME280;50122;56.330;43.838;2023-04-08T02:13:10;102263.13;;;-0.77;56.74
63946;BME280;50122;56.330;43.838;2023-04-08T02:15:42;102264.09;;;-0.75;56.46
63946;BME280;50122;56.330;43.838;2023-04-08T02:18:14;102265.97;;;-0.71;56.09
63946;BME280;50122;56.330;43.838;2023-04-08T02:20:46;102273.84;;;-0.67;56.03
63946;BME280;50122;56.330;43.838;2023-04-08T02:23:23;102264.28;;;-0.68;55.78
63946;BME280;50122;56.330;43.838;2023-04-08T02:25:52;102274.72;;;-0.67;56.55
63946;BME280;50122;56.330;43.838;2023-04-08T02:28:21;102278.13;;;-0.68;56.65
63946;BME280;50122;56.330;43.838;2023-04-08T02:30:50;102277.16;;;-0.72;56.80
63946;BME280;50122;56.330;43.838;2023-04-08T02:33:20;102272.91;;;-0.70;56.25
63946;BME280;50122;56.330;43.838;2023-04-08T02:35:51;102279.75;;;-0.72;56.68
63946;BME280;50122;56.330;43.838;2023-04-08T02:38:21;102273.75;;;-0.71;56.71
63946;BME280;50122;56.330;43.838;2023-04-08T02:40:49;102280.75;;;-0.68;56.29
63946;BME280;50122;56.330;43.838;2023-04-08T02:43:19;102283.47;;;-0.65;56.58
63946;BME280;50122;56.330;43.838;2023-04-08T02:45:45;102273.84;;;-0.67;56.68
63946;BME280;50122;56.330;43.838;2023-04-08T02:48:12;102279.97;;;-0.65;56.51
63946;BME280;50122;56.330;43.838;2023-04-08T02:50:41;102273.94;;;-0.64;56.73
63946;BME280;50122;56.330;43.838;2023-04-08T02:53:08;102274.91;;;-0.61;56.81
63946;BME280;50122;56.330;43.838;2023-04-08T02:55:35;102276.78;;;-0.57;56.94
63946;BME280;50122;56.330;43.838;2023-04-08T02:58:01;102278.56;;;-0.56;56.71
63946;BME280;50122;56.330;43.838;2023-04-08T03:00:28;102276.78;;;-0.57;56.66
63946;BME280;50122;56.330;43.838;2023-04-08T03:02:55;102277.69;;;-0.56;57.04
63946;BME280;50122;56.330;43.838;2023-04-08T03:05:22;102286.41;;;-0.54;56.88
63946;BME280;50122;56.330;43.838;2023-04-08T03:07:49;102283.00;;;-0.53;56.58
63946;BME280;50122;56.330;43.838;2023-04-08T03:10:16;102279.50;;;-0.54;56.51
63946;BME280;50122;56.330;43.838;2023-04-08T03:12:42;102285.84;;;-0.45;56.58
63946;BME280;50122;56.330;43.838;2023-04-08T03:15:09;102284.28;;;-0.40;56.67
63946;BME280;50122;56.330;43.838;2023-04-08T03:17:36;102275.69;;;-0.38;55.99
63946;BME280;50122;56.330;43.838;2023-04-08T03:20:03;102273.19;;;-0.36;55.93
63946;BME280;50122;56.330;43.838;2023-04-08T03:22:33;102281.06;;;-0.33;56.35
63946;BME280;50122;56.330;43.838;2023-04-08T03:24:59;102286.47;;;-0.27;56.02
63946;BME280;50122;56.330;43.838;2023-04-08T03:27:26;102286.47;;;-0.27;56.21
63946;BME280;50122;56.330;43.838;2023-04-08T03:29:53;102283.81;;;-0.28;55.90
63946;BME280;50122;56.330;43.838;2023-04-08T03:32:20;102282.94;;;-0.29;55.95
63946;BME280;50122;56.330;43.838;2023-04-08T03:34:47;102288.13;;;-0.29;55.73
63946;BME280;50122;56.330;43.838;2023-04-08T03:37:17;102285.53;;;-0.29;55.78
63946;BME280;50122;56.330;43.838;2023-04-08T03:39:44;102293.38;;;-0.27;56.08
63946;BME280;50122;56.330;43.838;2023-04-08T03:42:11;102292.44;;;-0.29;56.25
63946;BME280;50122;56.330;43.838;2023-04-08T03:44:40;102289.94;;;-0.26;55.74
63946;BME280;50122;56.330;43.838;2023-04-08T03:47:06;102298.88;;;-0.18;55.78
63946;BME280;50122;56.330;43.838;2023-04-08T03:49:33;102295.53;;;-0.14;55.64
63946;BME280;50122;56.330;43.838;2023-04-08T03:51:59;102288.72;;;-0.10;55.84
63946;BME280;50122;56.330;43.838;2023-04-08T03:54:26;102295.78;;;-0.06;55.60
63946;BME280;50122;56.330;43.838;2023-04-08T03:56:53;102299.28;;;-0.06;55.31
63946;BME280;50122;56.330;43.838;2023-04-08T03:59:20;102303.72;;;-0.02;55.57
63946;BME280;50122;56.330;43.838;2023-04-08T04:01:46;102298.69;;;0.03;55.87
63946;BME280;50122;56.330;43.838;2023-04-08T04:04:13;102303.13;;;0.07;55.38
63946;BME280;50122;56.330;43.838;2023-04-08T04:06:40;102299.06;;;0.15;55.63
63946;BME280;50122;56.330;43.838;2023-04-08T04:09:07;102300.06;;;0.19;55.15
63946;BME280;50122;56.330;43.838;2023-04-08T04:11:34;102302.88;;;0.27;55.12
63946;BME280;50122;56.330;43.838;2023-04-08T04:14:02;102295.91;;;0.26;54.74
63946;BME280;50122;56.330;43.838;2023-04-08T04:16:29;102298.84;;;0.37;55.10
63946;BME280;50122;56.330;43.838;2023-04-08T04:18:58;102294.69;;;0.43;54.77
63946;BME280;50122;56.330;43.838;2023-04-08T04:21:25;102295.75;;;0.48;54.83
63946;BME280;50122;56.330;43.838;2023-04-08T04:23:52;102302.81;;;0.52;54.40
63946;BME280;50122;56.330;43.838;2023-04-08T04:26:19;102301.41;;;0.64;54.14
63946;BME280;50122;56.330;43.838;2023-04-08T04:28:47;102299.84;;;0.71;54.50
63946;BME280;50122;56.330;43.838;2023-04-08T04:31:22;102305.22;;;0.75;54.06
63946;BME280;50122;56.330;43.838;2023-04-08T04:33:52;102303.59;;;0.80;54.24
63946;BME280;50122;56.330;43.838;2023-04-08T04:36:19;102308.06;;;0.84;54.14
63946;BME280;50122;56.330;43.838;2023-04-08T04:38:45;102305.56;;;0.88;53.90
63946;BME280;50122;56.330;43.838;2023-04-08T04:41:15;102310.19;;;0.98;53.76
63946;BME280;50122;56.330;43.838;2023-04-08T04:43:42;102316.44;;;1.04;53.37
63946;BME280;50122;56.330;43.838;2023-04-08T04:46:09;102317.47;;;1.11;53.40
63946;BME280;50122;56.330;43.838;2023-04-08T04:48:36;102309.09;;;1.21;53.57
63946;BME280;50122;56.330;43.838;2023-04-08T04:51:16;102317.16;;;1.31;53.03
63946;BME280;50122;56.330;43.838;2023-04-08T04:53:48;102304.44;;;1.42;52.13
63946;BME280;50122;56.330;43.838;2023-04-08T04:56:15;102310.75;;;1.51;51.82
63946;BME280;50122;56.330;43.838;2023-04-08T04:58:41;102312.56;;;1.54;52.50
63946;BME280;50122;56.330;43.838;2023-04-08T05:01:09;102312.56;;;1.54;52.24
63946;BME280;50122;56.330;43.838;2023-04-08T05:03:36;102323.97;;;1.58;51.96
63946;BME280;50122;56.330;43.838;2023-04-08T05:06:02;102318.78;;;1.59;52.06
63946;BME280;50122;56.330;43.838;2023-04-08T05:08:29;102322.31;;;1.61;52.38
63946;BME280;50122;56.330;43.838;2023-04-08T05:10:56;102331.25;;;1.71;51.84
63946;BME280;50122;56.330;43.838;2023-04-08T05:13:24;102332.22;;;1.76;51.97
63946;BME280;50122;56.330;43.838;2023-04-08T05:15:51;102327.06;;;1.78;51.80
63946;BME280;50122;56.330;43.838;2023-04-08T05:18:18;102328.94;;;1.83;51.04
63946;BME280;50122;56.330;43.838;2023-04-08T05:20:45;102327.41;;;1.91;51.20
63946;BME280;50122;56.330;43.838;2023-04-08T05:23:12;102326.69;;;1.97;51.11
63946;BME280;50122;56.330;43.838;2023-04-08T05:25:39;102324.28;;;2.06;50.97
63946;BME280;50122;56.330;43.838;2023-04-08T05:28:05;102315.78;;;2.15;50.05
63946;BME280;50122;56.330;43.838;2023-04-08T05:30:32;102324.56;;;2.17;50.14
63946;BME280;50122;56.330;43.838;2023-04-08T05:32:59;102322.13;;;2.25;50.48
63946;BME280;50122;56.330;43.838;2023-04-08T05:35:27;102329.19;;;2.31;50.66
63946;BME280;50122;56.330;43.838;2023-04-08T05:37:54;102329.41;;;2.38;49.51
63946;BME280;50122;56.330;43.838;2023-04-08T05:40:21;102326.16;;;2.49;49.64
63946;BME280;50122;56.330;43.838;2023-04-08T05:42:48;102330.78;;;2.62;49.86
63946;BME280;50122;56.330;43.838;2023-04-08T05:45:14;102329.38;;;2.78;48.27
63946;BME280;50122;56.330;43.838;2023-04-08T05:47:41;102327.84;;;2.88;48.05
63946;BME280;50122;56.330;43.838;2023-04-08T05:50:08;102317.47;;;2.91;46.95
63946;BME280;50122;56.330;43.838;2023-04-08T05:52:40;102334.34;;;3.08;47.32
63946;BME280;50122;56.330;43.838;2023-04-08T05:55:07;102325.81;;;3.17;46.40
63946;BME280;50122;56.330;43.838;2023-04-08T05:57:34;102327.84;;;3.34;45.77
63946;BME280;50122;56.330;43.838;2023-04-08T06:00:03;102328.19;;;3.51;45.32
63946;BME280;50122;56.330;43.838;2023-04-08T06:02:30;102329.13;;;3.54;45.44
63946;BME280;50122;56.330;43.838;2023-04-08T06:04:57;102330.97;;;3.60;45.08
63946;BME280;50122;56.330;43.838;2023-04-08T06:07:25;102328.38;;;3.61;45.25
63946;BME280;50122;56.330;43.838;2023-04-08T06:09:52;102331.84;;;3.60;45.19
63946;BME280;50122;56.330;43.838;2023-04-08T06:12:18;102331.03;;;3.63;45.38
63946;BME280;50122;56.330;43.838;2023-04-08T06:14:46;102337.22;;;3.70;44.89
63946;BME280;50122;56.330;43.838;2023-04-08T06:17:13;102335.63;;;3.76;44.56
63946;BME280;50122;56.330;43.838;2023-04-08T06:19:39;102327.84;;;3.82;43.90
63946;BME280;50122;56.330;43.838;2023-04-08T06:22:07;102332.47;;;3.96;43.56
63946;BME280;50122;56.330;43.838;2023-04-08T06:24:34;102334.34;;;4.05;43.15
63946;BME280;50122;56.330;43.838;2023-04-08T06:27:00;102335.41;;;4.16;42.77
63946;BME280;50122;56.330;43.838;2023-04-08T06:29:28;102326.75;;;4.23;42.61
